createdAt,value
2022-08-11T00:01:59.144Z,23.17
2022-08-11T00:04:34.552Z,23.12
2022-08-11T00:07:04.229Z,23.06
2022-08-11T00:09:39.073Z,23.00
2022-08-11T00:12:13.906Z,22.97
2022-08-11T00:14:41.566Z,22.95
2022-08-11T00:17:11.794Z,22.91
2022-08-11T00:20:15.413Z,22.88
2022-08-11T00:22:31.018Z,22.86
2022-08-11T00:25:02.319Z,22.83
2022-08-11T00:27:37.039Z,22.77
2022-08-11T00:30:05.734Z,22.77
2022-08-11T00:32:33.582Z,22.74
2022-08-11T00:35:51.649Z,22.72
2022-08-11T00:37:50.863Z,22.69
2022-08-11T00:40:34.619Z,22.64
2022-08-11T00:43:24.355Z,22.64
2022-08-11T00:46:12.645Z,22.58
2022-08-11T00:48:56.994Z,22.55
2022-08-11T00:52:05.079Z,22.49
2022-08-11T00:54:45.056Z,22.48
2022-08-11T00:57:53.521Z,22.40
2022-08-11T01:00:23.427Z,22.40
2022-08-11T01:03:08.400Z,22.38
2022-08-11T01:05:37.941Z,22.32
2022-08-11T01:08:34.473Z,22.23
2022-08-11T01:11:55.115Z,22.18
2022-08-11T01:14:45.864Z,22.16
2022-08-11T01:17:50.408Z,22.11
2022-08-11T01:20:59.715Z,22.06
2022-08-11T01:23:47.763Z,22.05
2022-08-11T01:26:51.444Z,21.98
2022-08-11T01:30:07.523Z,21.95
2022-08-11T01:33:25.272Z,21.94
2022-08-11T01:36:32.641Z,21.91
2022-08-11T01:39:38.249Z,21.87
2022-08-11T01:42:48.628Z,21.86
2022-08-11T01:45:36.355Z,21.81
2022-08-11T01:48:15.396Z,21.81
2022-08-11T01:51:20.194Z,21.76
2022-08-11T01:54:13.329Z,21.73
2022-08-11T01:57:09.932Z,21.78
2022-08-11T01:59:48.787Z,21.74
2022-08-11T02:02:47.689Z,21.68
2022-08-11T02:05:27.384Z,21.70
2022-08-11T02:08:10.201Z,21.69
2022-08-11T02:11:12.818Z,21.65
2022-08-11T02:13:49.480Z,21.64
2022-08-11T02:16:38.014Z,21.63
2022-08-11T02:19:35.118Z,21.59
2022-08-11T02:22:38.232Z,21.57
2022-08-11T02:25:07.704Z,21.58
2022-08-11T02:27:41.836Z,21.55
2022-08-11T02:30:14.160Z,21.51
2022-08-11T02:33:09.401Z,21.47
2022-08-11T02:35:55.830Z,21.41
2022-08-11T02:38:43.389Z,21.35
2022-08-11T02:41:40.382Z,21.34
2022-08-11T02:44:28.437Z,21.28
2022-08-11T02:47:14.631Z,21.24
2022-08-11T02:49:59.927Z,21.20
2022-08-11T02:52:59.786Z,21.20
2022-08-11T02:55:57.400Z,21.14
2022-08-11T02:59:09.158Z,21.11
2022-08-11T03:02:00.608Z,21.07
2022-08-11T03:04:58.973Z,21.04
2022-08-11T03:07:35.173Z,21.05
2022-08-11T03:10:13.769Z,21.00
2022-08-11T03:13:27.093Z,20.96
2022-08-11T03:16:48.323Z,20.94
2022-08-11T03:19:31.456Z,20.92
2022-08-11T03:22:17.256Z,20.92
2022-08-11T03:24:57.627Z,20.88
2022-08-11T03:27:37.479Z,20.88
2022-08-11T03:30:17.762Z,20.83
2022-08-11T03:33:24.883Z,20.82
2022-08-11T03:36:25.419Z,20.81
2022-08-11T03:39:04.287Z,20.80
2022-08-11T03:42:06.802Z,20.78
2022-08-11T03:44:38.110Z,20.81
2022-08-11T03:47:52.391Z,20.73
2022-08-11T03:51:01.064Z,20.71
2022-08-11T03:53:48.187Z,20.72
2022-08-11T03:56:38.730Z,20.67
2022-08-11T03:59:17.279Z,20.68
2022-08-11T04:02:08.737Z,20.61
2022-08-11T04:05:09.509Z,20.59
2022-08-11T04:08:05.541Z,20.61
2022-08-11T04:11:09.001Z,20.59
2022-08-11T04:13:49.719Z,20.61
2022-08-11T04:16:34.838Z,20.62
2022-08-11T04:19:11.241Z,20.59
2022-08-11T04:22:05.146Z,20.55
2022-08-11T04:24:55.834Z,20.54
2022-08-11T04:27:40.554Z,20.56
2022-08-11T04:30:14.811Z,20.53
2022-08-11T04:33:03.423Z,20.47
2022-08-11T04:35:59.550Z,20.45
2022-08-11T04:38:46.123Z,20.43
2022-08-11T04:41:33.126Z,20.46
2022-08-11T04:44:06.160Z,20.44
2022-08-11T04:46:47.453Z,20.40
2022-08-11T04:50:10.119Z,20.36
2022-08-11T04:53:10.155Z,20.38
2022-08-11T04:56:27.284Z,20.39
2022-08-11T04:59:31.449Z,20.44
2022-08-11T05:02:17.919Z,20.43
2022-08-11T05:05:15.418Z,20.48
2022-08-11T05:07:45.931Z,20.50
2022-08-11T05:10:43.327Z,20.55
2022-08-11T05:13:30.872Z,20.58
2022-08-11T05:16:29.313Z,20.60
2022-08-11T05:19:15.994Z,20.68
2022-08-11T05:22:06.707Z,20.70
2022-08-11T05:27:48.849Z,20.81
2022-08-11T05:30:34.506Z,20.88
2022-08-11T05:33:30.519Z,20.89
2022-08-11T05:36:21.898Z,20.94
2022-08-11T05:39:15.433Z,21.02
2022-08-11T05:42:01.230Z,21.07
2022-08-11T05:44:47.567Z,21.18
2022-08-11T05:47:42.650Z,21.19
2022-08-11T05:50:33.800Z,21.27
2022-08-11T05:53:21.786Z,21.31
2022-08-11T05:56:09.446Z,21.35
2022-08-11T05:58:42.619Z,21.41
2022-08-11T06:01:12.110Z,21.48
2022-08-11T06:03:59.662Z,21.55
2022-08-11T06:06:29.221Z,21.61
2022-08-11T06:08:57.833Z,21.68
2022-08-11T06:11:43.142Z,21.74
2022-08-11T06:14:12.036Z,21.84
2022-08-11T06:16:41.470Z,21.89
2022-08-11T06:19:09.180Z,21.96
2022-08-11T06:21:36.734Z,22.03
2022-08-11T06:24:14.287Z,22.07
2022-08-11T06:27:09.126Z,22.18
2022-08-11T06:29:48.154Z,22.25
2022-08-11T06:32:36.488Z,22.34
2022-08-11T06:35:30.460Z,22.39
2022-08-11T06:38:06.364Z,22.49
2022-08-11T06:41:09.521Z,22.54
2022-08-11T06:44:34.622Z,22.62
2022-08-11T06:47:15.708Z,22.72
2022-08-11T06:50:06.351Z,22.81
2022-08-11T06:52:38.354Z,22.87
2022-08-11T06:55:57.506Z,22.94
2022-08-11T06:58:17.822Z,23.06
2022-08-11T07:00:47.863Z,23.15
2022-08-11T07:03:19.642Z,23.21
2022-08-11T07:05:55.718Z,23.28
2022-08-11T07:09:09.157Z,23.35
2022-08-11T07:12:20.367Z,23.45
2022-08-11T07:15:15.723Z,23.58
2022-08-11T07:17:49.924Z,23.69
2022-08-11T07:20:36.643Z,23.77
2022-08-11T07:23:26.215Z,23.86
2022-08-11T07:26:12.969Z,23.94
2022-08-11T07:28:58.788Z,24.02
2022-08-11T07:31:43.528Z,24.07
2022-08-11T07:34:32.769Z,24.16
2022-08-11T07:37:03.334Z,24.28
2022-08-11T07:39:34.040Z,24.34
2022-08-11T07:42:06.231Z,24.42
2022-08-11T07:44:54.464Z,24.52
2022-08-11T07:47:41.307Z,24.60
2022-08-11T07:50:28.684Z,24.69
2022-08-11T07:53:02.757Z,24.76
2022-08-11T07:55:51.356Z,24.85
2022-08-11T07:58:45.106Z,24.92
2022-08-11T08:01:31.965Z,25.01
2022-08-11T08:04:18.649Z,25.10
2022-08-11T08:07:04.481Z,25.19
2022-08-11T08:09:53.248Z,25.28
2022-08-11T08:12:43.881Z,25.37
2022-08-11T08:15:31.745Z,25.49
2022-08-11T08:18:20.603Z,25.59
2022-08-11T08:20:50.176Z,25.69
2022-08-11T08:23:33.037Z,25.81
2022-08-11T08:26:30.989Z,25.92
2022-08-11T08:29:20.071Z,26.06
2022-08-11T08:31:51.178Z,26.19
2022-08-11T08:34:18.929Z,26.32
2022-08-11T08:36:48.279Z,26.44
2022-08-11T08:39:16.616Z,26.56
2022-08-11T08:41:44.200Z,26.67
2022-08-11T08:44:37.256Z,26.79
2022-08-11T08:47:01.634Z,26.92
2022-08-11T08:49:34.196Z,27.03
2022-08-11T08:52:26.184Z,27.18
2022-08-11T08:55:02.328Z,27.32
2022-08-11T08:57:39.228Z,27.45
2022-08-11T09:00:08.847Z,27.58
2022-08-11T09:02:39.465Z,27.70
2022-08-11T09:05:07.783Z,27.81
2022-08-11T09:07:39.231Z,27.92
2022-08-11T09:10:08.471Z,28.04
2022-08-11T09:12:38.766Z,28.16
2022-08-11T09:15:15.198Z,28.29
2022-08-11T09:17:48.941Z,28.40
2022-08-11T09:20:27.121Z,28.51
2022-08-11T09:26:30.866Z,28.81
2022-08-11T09:28:59.233Z,28.91
2022-08-11T09:31:26.859Z,29.00
2022-08-11T09:33:55.433Z,29.09
2022-08-11T09:36:41.226Z,29.19
2022-08-11T09:39:28.107Z,29.31
2022-08-11T09:42:01.672Z,29.40
2022-08-11T09:44:50.681Z,29.50
2022-08-11T09:47:28.062Z,29.60
2022-08-11T09:50:02.843Z,29.68
2022-08-11T09:52:52.260Z,29.77
2022-08-11T09:55:27.336Z,29.91
2022-08-11T09:58:12.344Z,29.97
2022-08-11T10:01:02.250Z,30.06
2022-08-11T10:03:31.227Z,30.14
2022-08-11T10:06:20.145Z,30.20
2022-08-11T10:09:00.939Z,30.30
2022-08-11T10:11:29.030Z,30.38
2022-08-11T10:14:33.368Z,30.47
2022-08-11T10:17:08.974Z,30.55
2022-08-11T10:19:40.192Z,30.64
2022-08-11T10:22:27.636Z,30.72
2022-08-11T10:25:19.534Z,30.80
2022-08-11T10:28:28.662Z,30.88
2022-08-11T10:30:56.049Z,30.98
2022-08-11T10:33:57.563Z,31.07
2022-08-11T10:36:35.437Z,31.16
2022-08-11T10:39:05.040Z,31.26
2022-08-11T10:42:06.536Z,31.35
2022-08-11T10:44:43.339Z,31.46
2022-08-11T10:47:31.083Z,31.57
2022-08-11T10:50:17.473Z,31.70
2022-08-11T10:53:06.058Z,31.82
2022-08-11T10:55:51.482Z,31.98
2022-08-11T10:58:37.750Z,32.20
2022-08-11T11:01:05.825Z,32.49
2022-08-11T11:03:36.679Z,32.85
2022-08-11T11:06:33.307Z,33.35
2022-08-11T11:09:07.182Z,34.04
2022-08-11T11:11:56.500Z,34.66
2022-08-11T11:14:50.747Z,35.37
2022-08-11T11:17:56.926Z,36.08
2022-08-11T11:20:36.976Z,36.77
2022-08-11T11:23:10.189Z,37.32
2022-08-11T11:26:10.675Z,37.83
2022-08-11T11:28:55.898Z,38.37
2022-08-11T11:31:36.152Z,38.80
2022-08-11T11:34:28.895Z,39.20
2022-08-11T11:36:57.438Z,39.64
2022-08-11T11:39:27.391Z,39.94
2022-08-11T11:41:56.773Z,40.22
2022-08-11T11:44:24.343Z,40.49
2022-08-11T11:46:52.584Z,40.68
2022-08-11T11:51:55.789Z,41.07
2022-08-11T11:54:25.312Z,41.25
2022-08-11T11:56:54.693Z,41.42
2022-08-11T11:59:41.575Z,41.57
2022-08-11T12:02:12.011Z,41.70
2022-08-11T12:04:42.952Z,41.80
2022-08-11T12:07:29.412Z,41.93
2022-08-11T12:09:58.314Z,42.09
2022-08-11T12:12:44.560Z,42.23
2022-08-11T12:15:12.802Z,42.39
2022-08-11T12:17:39.922Z,42.55
2022-08-11T12:20:31.561Z,42.66
2022-08-11T12:23:15.156Z,42.80
2022-08-11T12:26:26.004Z,42.92
2022-08-11T12:28:50.169Z,43.10
2022-08-11T12:31:16.942Z,43.25
2022-08-11T12:33:44.541Z,43.37
2022-08-11T12:36:16.474Z,43.53
2022-08-11T12:38:51.251Z,43.65
2022-08-11T12:41:39.866Z,43.82
2022-08-11T12:44:29.777Z,43.98
2022-08-11T12:46:59.755Z,44.17
2022-08-11T12:49:49.681Z,44.32
2022-08-11T12:52:26.216Z,44.45
2022-08-11T12:55:14.131Z,44.49
2022-08-11T12:58:05.571Z,44.59
2022-08-11T13:00:51.670Z,44.72
2022-08-11T13:03:41.111Z,44.85
2022-08-11T13:06:08.872Z,45.03
2022-08-11T13:08:37.896Z,45.18
2022-08-11T13:11:23.859Z,45.33
2022-08-11T13:13:57.543Z,45.49
2022-08-11T13:16:28.794Z,45.59
2022-08-11T13:18:57.572Z,45.68
2022-08-11T13:21:24.959Z,45.76
2022-08-11T13:24:01.985Z,45.80
2022-08-11T13:26:47.763Z,45.88
2022-08-11T13:29:17.285Z,46.03
2022-08-11T13:31:45.014Z,46.15
2022-08-11T13:34:12.217Z,46.22
2022-08-11T13:36:39.496Z,46.25
2022-08-11T13:39:06.453Z,46.30
2022-08-11T13:41:39.607Z,46.36
2022-08-11T13:44:12.102Z,46.43
2022-08-11T13:46:40.256Z,46.58
2022-08-11T13:49:11.716Z,46.70
2022-08-11T13:51:40.210Z,46.82
2022-08-11T13:54:12.250Z,46.89
2022-08-11T13:56:42.479Z,46.98
2022-08-11T13:59:09.615Z,47.09
2022-08-11T14:02:19.597Z,47.20
2022-08-11T14:04:41.491Z,47.33
2022-08-11T14:07:10.867Z,47.41
2022-08-11T14:09:44.682Z,47.42
2022-08-11T14:12:44.953Z,47.45
2022-08-11T14:15:20.077Z,47.54
2022-08-11T14:17:53.933Z,47.57
2022-08-11T14:20:39.266Z,47.58
2022-08-11T14:23:07.778Z,47.58
2022-08-11T14:26:00.492Z,47.57
2022-08-11T14:28:33.950Z,47.61
2022-08-11T14:31:05.359Z,47.66
2022-08-11T14:33:38.162Z,47.71
2022-08-11T14:36:22.614Z,47.77
2022-08-11T14:38:50.506Z,47.81
2022-08-11T14:41:37.314Z,47.79
2022-08-11T14:44:44.452Z,47.79
2022-08-11T14:47:24.997Z,47.75
2022-08-11T14:49:58.486Z,47.71
2022-08-11T14:52:43.357Z,47.72
2022-08-11T14:55:30.071Z,47.70
2022-08-11T14:57:57.309Z,47.68
2022-08-11T15:00:27.633Z,47.68
2022-08-11T15:03:10.693Z,47.70
2022-08-11T15:06:02.220Z,47.67
2022-08-11T15:08:49.389Z,47.79
2022-08-11T15:11:37.182Z,47.83
2022-08-11T15:14:06.522Z,47.89
2022-08-11T15:16:52.020Z,47.93
2022-08-11T15:19:21.423Z,47.99
2022-08-11T15:22:07.842Z,48.02
2022-08-11T15:24:36.491Z,48.03
2022-08-11T15:27:30.859Z,47.97
2022-08-11T15:30:32.966Z,47.97
2022-08-11T15:45:03.732Z,47.61
2022-08-11T15:47:48.291Z,47.43
2022-08-11T15:50:33.879Z,47.20
2022-08-11T15:53:08.314Z,47.09
2022-08-11T15:55:37.591Z,46.95
2022-08-11T15:58:26.768Z,46.79
2022-08-11T16:01:14.555Z,46.67
2022-08-11T16:04:12.548Z,46.49
2022-08-11T16:07:01.335Z,46.29
2022-08-11T16:09:39.714Z,46.23
2022-08-11T16:12:19.100Z,46.12
2022-08-11T16:15:09.093Z,46.00
2022-08-11T16:17:40.808Z,45.90
2022-08-11T16:20:08.434Z,45.75
2022-08-11T16:22:43.333Z,45.78
2022-08-11T16:27:02.536Z,45.66
2022-08-11T16:28:15.149Z,45.53
2022-08-11T16:30:44.026Z,45.41
2022-08-11T16:33:48.662Z,45.30
2022-08-11T16:36:18.614Z,45.15
2022-08-11T16:38:51.193Z,44.92
2022-08-11T17:00:07.166Z,41.29
2022-08-11T17:03:04.938Z,40.82
2022-08-11T17:05:55.144Z,40.25
2022-08-11T17:08:56.694Z,39.69
2022-08-11T17:11:46.253Z,39.27
2022-08-11T17:14:35.645Z,38.77
2022-08-11T17:17:06.396Z,38.44
2022-08-11T17:20:39.492Z,38.08
2022-08-11T17:22:51.253Z,37.75
2022-08-11T17:25:19.539Z,37.42
2022-08-11T17:27:54.562Z,37.16
2022-08-11T17:30:43.687Z,36.88
2022-08-11T17:33:30.953Z,36.65
2022-08-11T17:35:58.455Z,36.43
2022-08-11T17:38:25.848Z,36.23
2022-08-11T17:41:18.426Z,36.04
2022-08-11T17:44:10.039Z,35.87
2022-08-11T17:46:56.065Z,35.69
2022-08-11T17:49:23.469Z,35.51
2022-08-11T17:52:10.277Z,35.33
2022-08-11T17:54:56.546Z,35.17
2022-08-11T17:57:47.639Z,35.00
2022-08-11T18:00:16.197Z,34.86
2022-08-11T18:03:03.670Z,34.72
2022-08-11T18:05:34.580Z,34.59
2022-08-11T18:08:23.810Z,34.47
2022-08-11T18:11:10.681Z,34.34
2022-08-11T18:13:58.865Z,34.18
2022-08-11T18:16:44.445Z,34.04
2022-08-11T18:19:30.789Z,33.89
2022-08-11T18:22:28.293Z,33.67
2022-08-11T18:25:19.049Z,33.56
2022-08-11T18:28:07.871Z,33.39
2022-08-11T18:31:04.023Z,33.25
2022-08-11T18:34:06.840Z,33.06
2022-08-11T18:36:57.474Z,32.94
2022-08-11T18:39:46.225Z,32.80
2022-08-11T18:42:43.723Z,32.63
2022-08-11T18:45:45.151Z,32.45
2022-08-11T18:48:38.296Z,32.27
2022-08-11T18:51:29.874Z,32.10
2022-08-11T18:54:26.732Z,31.91
2022-08-11T18:57:12.967Z,31.75
2022-08-11T19:00:02.466Z,31.56
2022-08-11T19:02:55.951Z,31.40
2022-08-11T19:06:32.175Z,31.24
2022-08-11T19:08:55.981Z,31.06
2022-08-11T19:11:43.944Z,30.92
2022-08-11T19:14:31.412Z,30.79
2022-08-11T19:17:44.338Z,30.66
2022-08-11T19:20:31.484Z,30.52
2022-08-11T19:23:18.551Z,30.40
2022-08-11T19:26:06.593Z,30.29
2022-08-11T19:28:54.061Z,30.19
2022-08-11T19:31:44.436Z,30.11
2022-08-11T19:34:33.375Z,30.01
2022-08-11T19:37:24.040Z,29.94
2022-08-11T19:40:12.912Z,29.82
2022-08-11T19:42:59.885Z,29.69
2022-08-11T19:45:45.872Z,29.59
2022-08-11T19:48:40.237Z,29.45
2022-08-11T19:51:28.515Z,29.34
2022-08-11T19:54:14.638Z,29.27
2022-08-11T19:57:01.671Z,29.17
2022-08-11T19:59:47.415Z,29.10
2022-08-11T20:02:32.601Z,29.03
2022-08-11T20:05:17.987Z,28.98
2022-08-11T20:08:05.872Z,28.92
2022-08-11T20:10:54.487Z,28.89
2022-08-11T20:13:41.669Z,28.88
2022-08-11T20:16:29.746Z,28.87
2022-08-11T20:19:15.874Z,28.87
2022-08-11T20:22:07.903Z,28.88
2022-08-11T20:24:56.690Z,28.88
2022-08-11T20:27:43.495Z,28.90
2022-08-11T20:30:29.829Z,28.91
2022-08-11T20:33:15.709Z,28.89
2022-08-11T20:36:00.833Z,28.88
2022-08-11T20:38:50.077Z,28.85
2022-08-11T20:41:58.188Z,28.85
2022-08-11T20:44:43.033Z,28.82
2022-08-11T20:47:29.706Z,28.80
2022-08-11T20:50:19.565Z,28.75
2022-08-11T20:53:06.283Z,28.72
2022-08-11T21:02:03.364Z,28.59
2022-08-11T21:07:59.082Z,28.40
2022-08-11T21:10:51.723Z,28.29
2022-08-11T21:13:39.631Z,28.21
2022-08-11T21:16:27.586Z,28.14
2022-08-11T21:19:19.204Z,28.07
2022-08-11T21:22:27.790Z,28.05
2022-08-11T21:25:16.522Z,27.99
2022-08-11T21:28:05.006Z,27.95
2022-08-11T21:30:54.032Z,27.89
2022-08-11T21:33:46.015Z,27.86
2022-08-11T21:36:33.174Z,27.81
2022-08-11T21:39:24.901Z,27.76
2022-08-11T21:42:13.205Z,27.70
2022-08-11T21:45:01.576Z,27.67
2022-08-11T21:47:48.553Z,27.63
2022-08-11T21:50:33.632Z,27.57
2022-08-11T21:53:20.189Z,27.53
2022-08-11T21:56:06.409Z,27.49
2022-08-11T21:58:52.476Z,27.45
2022-08-11T22:01:38.025Z,27.42
2022-08-11T22:04:24.754Z,27.39
2022-08-11T22:07:10.532Z,27.37
2022-08-11T22:09:56.274Z,27.34
2022-08-11T22:12:44.904Z,27.31
2022-08-11T22:15:31.681Z,27.27
2022-08-11T22:18:17.634Z,27.23
2022-08-11T22:21:03.861Z,27.18
2022-08-11T22:23:55.017Z,27.12
2022-08-11T22:26:42.391Z,27.07
2022-08-11T22:29:50.687Z,27.04
2022-08-11T22:32:38.359Z,26.98
2022-08-11T22:35:28.392Z,26.90
2022-08-11T22:38:16.256Z,26.84
2022-08-11T22:41:01.415Z,26.76
2022-08-11T22:43:46.597Z,26.70
2022-08-11T22:46:33.025Z,26.63
2022-08-11T22:49:19.270Z,26.56
2022-08-11T22:52:04.940Z,26.48
2022-08-11T22:54:51.769Z,26.40
2022-08-11T22:57:38.921Z,26.32
2022-08-11T23:00:24.529Z,26.26
2022-08-11T23:03:37.517Z,26.20
2022-08-11T23:06:23.135Z,26.11
2022-08-11T23:09:09.071Z,26.05
2022-08-11T23:12:06.647Z,25.97
2022-08-11T23:14:54.677Z,25.86
2022-08-11T23:17:40.732Z,25.77
2022-08-11T23:20:42.233Z,25.66
2022-08-11T23:23:31.330Z,25.56
2022-08-11T23:26:17.597Z,25.45
2022-08-11T23:29:05.277Z,25.35
2022-08-11T23:31:53.430Z,25.28
2022-08-11T23:35:04.911Z,25.21
2022-08-11T23:37:48.210Z,25.17
2022-08-11T23:40:33.349Z,25.10
2022-08-11T23:43:19.757Z,25.05
2022-08-11T23:46:04.965Z,24.99
2022-08-11T23:48:51.130Z,24.94
2022-08-11T23:51:40.799Z,24.90
2022-08-11T23:54:28.117Z,24.84
2022-08-11T23:57:13.938Z,24.79
2022-08-11T23:59:59.115Z,24.72
